Time;durP1;ratioP1;P1;durP2;ratioP2;P2;SDS_P1;SDS_P2;PMS_P1;PMS_P2;Temp;Humidity;BMP_temperature;BMP_pressure;BME280_temperature;BME280_humidity;BME280_pressure;Samples;Min_cycle;Max_cycle;Signal;HPM_P1;HPM_P2
2022/09/14 00:02:06;;;;;;;7.60;5.32;;;435.80;2355.20;;;;;;5095726;28;20031;-75
2022/09/14 00:04:32;;;;;;;9.48;4.30;;;435.60;2355.20;;;;;;5076908;28;20468;-75
2022/09/14 00:06:58;;;;;;;11.07;4.78;;;435.60;2355.20;;;;;;5095296;28;20422;-75
2022/09/14 00:09:24;;;;;;;9.40;4.75;;;435.50;2355.20;;;;;;5095200;28;20031;-75
2022/09/14 00:11:51;;;;;;;18.33;4.78;;;435.30;2355.20;;;;;;5100689;28;20030;-75
2022/09/14 00:14:18;;;;;;;9.90;4.88;;;435.30;2355.20;;;;;;5097367;28;20039;-75
2022/09/14 00:16:43;;;;;;;6.38;4.15;;;435.30;2355.20;;;;;;5092182;28;20020;-75
2022/09/14 00:19:22;;;;;;;10.43;4.72;;;435.30;2355.20;;;;;;5077011;28;20400;-75
2022/09/14 00:21:53;;;;;;;9.63;5.30;;;435.30;2355.20;;;;;;5095090;28;20024;-76
2022/09/14 00:24:20;;;;;;;7.90;4.65;;;435.30;2355.20;;;;;;5076767;28;20708;-75
2022/09/14 00:26:46;;;;;;;9.73;5.45;;;435.30;2355.20;;;;;;5076366;28;20035;-74
2022/09/14 00:29:12;;;;;;;7.07;4.60;;;435.50;2355.20;;;;;;5101098;28;20372;-75
2022/09/14 00:31:39;;;;;;;13.38;4.57;;;435.50;2355.20;;;;;;5100094;28;20013;-75
2022/09/14 00:34:07;;;;;;;10.25;5.28;;;435.60;2355.20;;;;;;5079277;28;20038;-75
2022/09/14 00:36:38;;;;;;;9.50;4.90;;;435.70;2355.20;;;;;;5073891;28;20022;-75
2022/09/14 00:39:04;;;;;;;10.27;4.60;;;435.80;2355.20;;;;;;5094694;28;20054;-75
2022/09/14 00:41:33;;;;;;;6.35;4.25;;;435.80;2355.20;;;;;;5076835;28;20056;-75
2022/09/14 00:44:05;;;;;;;6.28;4.40;;;435.80;2355.20;;;;;;5091690;28;20024;-75
2022/09/14 00:46:35;;;;;;;8.18;4.63;;;436.00;2355.20;;;;;;5077095;28;20020;-75
2022/09/14 00:49:05;;;;;;;8.65;5.03;;;436.00;2355.20;;;;;;5096513;28;20020;-75
2022/09/14 00:51:32;;;;;;;12.43;4.60;;;436.10;2355.20;;;;;;5091555;28;20012;-75
2022/09/14 00:54:02;;;;;;;7.25;4.43;;;436.10;2355.20;;;;;;5100272;28;20039;-75
2022/09/14 00:56:28;;;;;;;5.47;4.43;;;436.10;2355.20;;;;;;5073590;28;20033;-75
2022/09/14 00:58:57;;;;;;;11.02;5.22;;;436.10;2355.20;;;;;;5071024;28;20028;-74
2022/09/14 01:01:25;;;;;;;10.23;4.53;;;436.10;2355.20;;;;;;5097191;28;20028;-75
2022/09/14 01:03:51;;;;;;;7.18;4.72;;;436.10;2355.20;;;;;;5091634;28;20020;-74
2022/09/14 01:06:39;;;;;;;11.20;5.47;;;436.10;2355.20;;;;;;5091809;28;20388;-75
2022/09/14 01:09:29;;;;;;;8.15;4.95;;;436.10;2355.20;;;;;;5092891;28;20030;-74
2022/09/14 01:12:16;;;;;;;10.50;4.55;;;436.10;2355.20;;;;;;5094304;28;20015;-74
2022/09/14 01:14:49;;;;;;;;;;;436.10;2355.20;;;;;;5031984;28;20068;-75
2022/09/14 01:17:29;;;;;;;10.00;5.47;;;460.80;2380.80;;;;;;5026708;28;19959;-75
2022/09/14 01:20:19;;;;;;;10.68;5.70;;;460.90;2380.80;;;;;;5024395;28;20534;-75
2022/09/14 01:22:57;;;;;;;13.88;6.22;;;460.80;2380.80;;;;;;5026151;28;20037;-75
2022/09/14 01:25:56;;;;;;;11.35;5.90;;;436.10;2355.20;;;;;;5014352;28;20037;-75
2022/09/14 01:28:30;;;;;;;9.15;5.50;;;436.00;2355.20;;;;;;5030213;28;20025;-74
2022/09/14 01:30:59;;;;;;;9.25;5.38;;;435.90;2355.20;;;;;;5028797;28;20014;-75
2022/09/14 01:33:34;;;;;;;9.50;5.80;;;435.80;2355.20;;;;;;5032899;28;20111;-75
2022/09/14 01:36:03;;;;;;;10.70;5.85;;;435.80;2355.20;;;;;;5003694;28;20034;-75
2022/09/14 01:38:58;;;;;;;12.77;5.95;;;435.70;2355.20;;;;;;5013248;28;20548;-75
2022/09/14 01:41:29;;;;;;;11.30;6.47;;;435.60;2355.20;;;;;;4990965;28;20031;-75
2022/09/14 01:44:03;;;;;;;14.25;6.20;;;435.60;2355.20;;;;;;4976112;28;20026;-75
2022/09/14 01:46:39;;;;;;;13.32;6.22;;;435.60;2355.20;;;;;;4989482;28;20034;-74
2022/09/14 01:49:20;;;;;;;12.25;6.93;;;435.60;2355.20;;;;;;4989792;28;20026;-75
2022/09/14 01:51:49;;;;;;;10.35;6.30;;;435.70;2355.20;;;;;;5012067;28;20034;-75
2022/09/14 01:54:46;;;;;;;9.18;6.47;;;435.70;2355.20;;;;;;5034280;28;20086;-75
2022/09/14 01:57:18;;;;;;;11.40;6.20;;;435.60;2355.20;;;;;;4992697;28;20046;-75
2022/09/14 01:59:46;;;;;;;8.70;6.03;;;435.60;2355.20;;;;;;4993853;28;20431;-74
2022/09/14 02:02:17;;;;;;;9.93;6.30;;;435.60;2355.20;;;;;;4993145;28;20113;-74
2022/09/14 02:05:02;;;;;;;8.27;6.30;;;435.60;2355.20;;;;;;4993411;28;20118;-75
2022/09/14 02:07:28;;;;;;;19.30;7.25;;;435.60;2355.20;;;;;;4992891;28;20394;-74
2022/09/14 02:09:55;;;;;;;11.40;7.28;;;435.60;2355.20;;;;;;4992847;28;20038;-75
2022/09/14 02:12:21;;;;;;;9.88;6.35;;;435.60;2355.20;;;;;;4993164;28;20510;-75
2022/09/14 02:14:49;;;;;;;10.93;6.35;;;435.70;2355.20;;;;;;4992871;28;20125;-74
2022/09/14 02:17:15;;;;;;;12.02;6.47;;;435.60;2355.20;;;;;;5001662;28;20029;-74
2022/09/14 02:19:50;;;;;;;14.27;6.93;;;435.50;2355.20;;;;;;5032095;28;20037;-75
2022/09/14 02:22:16;;;;;;;15.95;7.90;;;435.40;2355.20;;;;;;5031906;28;20032;-75
2022/09/14 02:24:42;;;;;;;14.20;6.93;;;435.30;2355.20;;;;;;5032078;28;20045;-75
2022/09/14 02:27:08;;;;;;;11.73;7.72;;;435.20;2355.20;;;;;;5032341;28;20498;-75
2022/09/14 02:29:34;;;;;;;13.32;7.07;;;435.20;2355.20;;;;;;5032161;28;20037;-74
2022/09/14 02:32:24;;;;;;;11.48;7.40;;;410.50;2355.20;;;;;;5031807;28;20029;-75
2022/09/14 02:35:00;;;;;;;13.57;8.23;;;410.50;2355.20;;;;;;5077441;28;20112;-75
2022/09/14 02:37:28;;;;;;;15.40;7.72;;;435.30;2355.20;;;;;;5089166;28;20028;-75
2022/09/14 02:40:13;;;;;;;11.70;7.95;;;435.30;2355.20;;;;;;5096866;28;20034;-75
2022/09/14 02:42:45;;;;;;;12.10;6.55;;;435.30;2355.20;;;;;;5092296;28;20020;-75
2022/09/14 02:45:48;;;;;;;15.10;8.60;;;435.40;2355.20;;;;;;5097541;28;20024;-75
2022/09/14 02:48:26;;;;;;;16.02;7.78;;;435.30;2355.20;;;;;;5093085;28;20043;-75
2022/09/14 02:50:58;;;;;;;12.75;7.72;;;435.30;2355.20;;;;;;5096727;28;20020;-75
2022/09/14 02:53:46;;;;;;;14.48;7.90;;;435.30;2355.20;;;;;;5095688;28;20031;-75
2022/09/14 02:56:14;;;;;;;13.63;7.10;;;435.30;2355.20;;;;;;5093033;28;20020;-75
2022/09/14 02:58:42;;;;;;;17.58;8.40;;;435.50;2355.20;;;;;;5084175;28;20020;-75
2022/09/14 03:01:11;;;;;;;11.18;7.88;;;435.60;2355.20;;;;;;5093830;28;20477;-75
2022/09/14 03:03:37;;;;;;;13.55;8.60;;;435.60;2355.20;;;;;;5081216;28;20035;-75
2022/09/14 03:06:03;;;;;;;13.55;7.75;;;435.50;2355.20;;;;;;5080092;28;20081;-75
2022/09/14 03:08:30;;;;;;;14.73;8.30;;;435.30;2355.20;;;;;;5081517;28;20028;-76
2022/09/14 03:10:56;;;;;;;11.20;6.93;;;435.20;2355.20;;;;;;5106505;28;20426;-75
2022/09/14 03:13:22;;;;;;;14.93;8.23;;;410.50;2355.20;;;;;;5072670;28;20033;-75
2022/09/14 03:15:48;;;;;;;11.20;7.90;;;410.50;2355.20;;;;;;5096515;28;20076;-74
2022/09/14 03:18:14;;;;;;;16.38;7.45;;;410.50;2355.20;;;;;;5099047;28;20035;-75
2022/09/14 03:20:40;;;;;;;14.02;8.77;;;410.50;2355.20;;;;;;5077659;28;20036;-74
2022/09/14 03:23:07;;;;;;;16.13;8.43;;;410.50;2355.20;;;;;;5077379;28;20032;-74
2022/09/14 03:25:38;;;;;;;16.85;7.50;;;410.50;2355.20;;;;;;5074639;28;20032;-75
2022/09/14 03:28:05;;;;;;;18.50;8.82;;;410.50;2355.20;;;;;;5076469;28;20156;-75
2022/09/14 03:30:32;;;;;;;12.55;8.02;;;410.50;2355.20;;;;;;5076737;28;20515;-75
2022/09/14 03:32:58;;;;;;;13.30;8.13;;;410.50;2355.20;;;;;;5077764;28;20035;-75
2022/09/14 03:35:24;;;;;;;12.40;7.80;;;410.50;2355.20;;;;;;5111144;27;20114;-75
2022/09/14 03:37:50;;;;;;;15.50;7.82;;;410.50;2355.20;;;;;;5093224;28;20024;-75
2022/09/14 03:40:16;;;;;;;12.05;7.13;;;410.50;2355.20;;;;;;5110922;28;20020;-74
2022/09/14 03:42:47;;;;;;;12.73;7.13;;;410.50;2355.20;;;;;;5093131;28;20063;-75
2022/09/14 03:45:14;;;;;;;14.90;8.50;;;435.20;2355.20;;;;;;5077479;28;20537;-74
2022/09/14 03:47:41;;;;;;;16.38;8.95;;;410.50;2355.20;;;;;;5095621;28;20020;-74
2022/09/14 03:50:09;;;;;;;14.30;8.40;;;410.50;2355.20;;;;;;5095856;28;20095;-75
2022/09/14 03:52:36;;;;;;;16.45;7.65;;;410.50;2355.20;;;;;;5092452;28;20030;-75
2022/09/14 03:55:03;;;;;;;16.30;8.45;;;410.40;2355.20;;;;;;5092712;28;20490;-74
2022/09/14 03:57:29;;;;;;;11.55;7.53;;;410.40;2355.20;;;;;;5092609;28;20429;-74
2022/09/14 03:59:54;;;;;;;15.55;9.30;;;410.50;2355.20;;;;;;5095547;28;20051;-75
2022/09/14 04:02:20;;;;;;;10.60;7.40;;;410.50;2355.20;;;;;;5092461;28;20492;-74
2022/09/14 04:04:47;;;;;;;12.45;8.25;;;410.50;2355.20;;;;;;5113978;27;20053;-74
2022/09/14 04:07:14;;;;;;;11.13;7.60;;;435.20;2355.20;;;;;;5109916;28;20020;-74
2022/09/14 04:09:41;;;;;;;11.30;7.60;;;410.50;2355.20;;;;;;5098475;28;20500;-75
2022/09/14 04:12:07;;;;;;;19.73;7.63;;;410.50;2355.20;;;;;;5079431;28;20038;-74
2022/09/14 04:14:33;;;;;;;17.00;8.20;;;410.50;2355.20;;;;;;5078594;28;20040;-75
2022/09/14 04:16:58;;;;;;;15.45;8.48;;;410.30;2355.20;;;;;;5096296;28;20469;-75
2022/09/14 04:19:24;;;;;;;12.40;7.82;;;410.30;2355.20;;;;;;5097603;28;20375;-75
2022/09/14 04:21:50;;;;;;;12.48;7.53;;;410.30;2355.20;;;;;;5118361;27;20473;-74
2022/09/14 04:24:16;;;;;;;12.93;8.07;;;410.30;2355.20;;;;;;5094878;28;20040;-74
2022/09/14 04:26:42;;;;;;;13.50;7.70;;;410.30;2355.20;;;;;;5100735;28;20380;-75
2022/09/14 04:29:09;;;;;;;13.75;7.80;;;410.30;2355.20;;;;;;5073678;28;20473;-74
2022/09/14 04:31:35;;;;;;;12.93;7.72;;;410.20;2355.20;;;;;;5095018;28;20031;-75
2022/09/14 04:34:01;;;;;;;13.55;8.80;;;410.20;2355.20;;;;;;5075588;28;20036;-76
2022/09/14 04:36:29;;;;;;;15.43;8.57;;;410.20;2355.20;;;;;;5091925;28;20028;-75
2022/09/14 04:38:57;;;;;;;11.68;8.55;;;410.20;2355.20;;;;;;5079524;28;20051;-75
2022/09/14 04:41:24;;;;;;;13.45;8.65;;;410.20;2355.20;;;;;;5076813;28;20024;-76
2022/09/14 04:43:51;;;;;;;13.95;8.88;;;410.20;2355.20;;;;;;5081919;28;20110;-75
2022/09/14 04:46:22;;;;;;;13.27;7.88;;;410.20;2355.20;;;;;;5073922;28;20024;-74
2022/09/14 04:48:49;;;;;;;15.75;8.50;;;410.10;2355.20;;;;;;5080301;28;20107;-76
2022/09/14 04:51:19;;;;;;;23.13;9.27;;;410.20;2355.20;;;;;;5083646;28;20016;-77
2022/09/14 04:53:47;;;;;;;18.13;8.07;;;410.10;2355.20;;;;;;5097094;28;20579;-78
2022/09/14 04:56:13;;;;;;;21.42;8.35;;;410.10;2355.20;;;;;;5083455;28;20118;-78
2022/09/14 04:58:43;;;;;;;26.52;8.88;;;410.00;2355.20;;;;;;5114346;27;20023;-78
2022/09/14 05:01:16;;;;;;;10.77;7.68;;;410.00;2355.20;;;;;;5076827;28;20023;-77
2022/09/14 05:03:42;;;;;;;14.13;8.05;;;410.00;2355.20;;;;;;5082121;28;20020;-78
2022/09/14 05:06:14;;;;;;;15.55;8.27;;;409.70;2355.20;;;;;;5083000;28;20019;-77
2022/09/14 05:08:40;;;;;;;10.52;7.15;;;410.00;2355.20;;;;;;5100652;28;20564;-77
2022/09/14 05:11:07;;;;;;;12.13;7.63;;;410.00;2355.20;;;;;;5115749;28;20092;-77
2022/09/14 05:13:33;;;;;;;13.50;7.38;;;410.00;2355.20;;;;;;5081723;28;20039;-77
2022/09/14 05:16:05;;;;;;;11.30;7.55;;;410.10;2355.20;;;;;;5075356;28;20107;-79
2022/09/14 05:18:32;;;;;;;15.25;6.93;;;410.20;2355.20;;;;;;5082200;28;20024;-80
2022/09/14 05:21:01;;;;;;;15.25;7.03;;;410.20;2355.20;;;;;;5105007;28;20060;-82
2022/09/14 05:23:27;;;;;;;14.38;7.03;;;410.30;2355.20;;;;;;5081915;28;20039;-77
2022/09/14 05:25:52;;;;;;;10.63;6.30;;;410.40;2355.20;;;;;;5076583;28;20500;-80
2022/09/14 05:28:18;;;;;;;10.80;6.40;;;410.50;2355.20;;;;;;5102574;28;20090;-80
2022/09/14 05:30:44;;;;;;;10.10;7.78;;;435.20;2355.20;;;;;;5098227;28;20028;-77
2022/09/14 05:33:09;;;;;;;9.07;6.50;;;435.20;2355.20;;;;;;5102630;28;20023;-85
2022/09/14 05:35:35;;;;;;;15.77;6.70;;;435.30;2355.20;;;;;;5085780;28;20020;-78
2022/09/14 05:38:01;;;;;;;12.32;7.25;;;435.30;2355.20;;;;;;5100736;28;20027;-77
2022/09/14 05:40:27;;;;;;;14.18;7.50;;;435.40;2355.20;;;;;;5082785;28;20035;-77
2022/09/14 05:42:52;;;;;;;11.48;6.88;;;435.50;2355.20;;;;;;5119462;27;20080;-77
2022/09/14 05:45:18;;;;;;;12.20;6.68;;;435.60;2355.20;;;;;;5077803;28;20441;-79
2022/09/14 05:47:44;;;;;;;10.88;6.60;;;435.60;2355.20;;;;;;5085639;28;20016;-77
2022/09/14 05:50:09;;;;;;;13.52;6.60;;;435.60;2355.20;;;;;;5086277;28;20369;-77
2022/09/14 05:52:35;;;;;;;12.30;6.40;;;435.80;2355.20;;;;;;5080274;28;20025;-78
2022/09/14 05:55:01;;;;;;;9.68;6.38;;;435.90;2355.20;;;;;;5120517;27;20036;-78
2022/09/14 05:57:27;;;;;;;15.02;6.70;;;435.90;2355.20;;;;;;5103620;28;20070;-77
2022/09/14 05:59:52;;;;;;;10.95;6.50;;;436.00;2355.20;;;;;;5124537;27;20472;-76
2022/09/14 06:02:18;;;;;;;11.00;6.10;;;436.10;2355.20;;;;;;5111684;28;20024;-77
2022/09/14 06:04:44;;;;;;;9.50;6.35;;;436.10;2355.20;;;;;;5111360;28;20032;-76
2022/09/14 06:07:10;;;;;;;14.35;5.82;;;460.80;2380.80;;;;;;5114825;28;20062;-78
2022/09/14 06:09:36;;;;;;;9.43;6.28;;;460.80;2380.80;;;;;;5115480;28;20542;-79
2022/09/14 06:12:02;;;;;;;10.90;5.95;;;460.90;2380.80;;;;;;5097596;28;20019;-77
2022/09/14 06:14:28;;;;;;;8.70;5.55;;;461.00;2380.80;;;;;;5115923;28;20362;-77
2022/09/14 06:16:53;;;;;;;11.65;6.20;;;461.10;2380.80;;;;;;5115823;28;20049;-79
2022/09/14 06:19:19;;;;;;;8.70;5.75;;;461.20;2380.80;;;;;;5102162;28;20019;-78
2022/09/14 06:21:45;;;;;;;9.38;6.30;;;461.30;2380.80;;;;;;5084614;28;20028;-82
2022/09/14 06:24:14;;;;;;;10.95;5.57;;;461.40;2380.80;;;;;;5113747;28;20130;-78
2022/09/14 06:26:40;;;;;;;12.85;5.38;;;461.50;2380.80;;;;;;5097522;28;20027;-77
2022/09/14 06:29:06;;;;;;;7.03;4.75;;;461.70;2380.80;;;;;;5112686;28;21830;-78
2022/09/14 06:31:32;;;;;;;11.25;5.25;;;486.40;2380.80;;;;;;5104764;28;20051;-78
2022/09/14 06:33:58;;;;;;;10.48;5.75;;;486.60;2380.80;;;;;;5116122;28;20063;-77
2022/09/14 06:36:26;;;;;;;10.90;5.90;;;486.70;2380.80;;;;;;5090906;28;20035;-84
2022/09/14 06:38:53;;;;;;;8.82;6.13;;;486.90;2380.80;;;;;;5109047;28;20031;-78
2022/09/14 06:41:22;;;;;;;10.70;6.55;;;487.00;2380.80;;;;;;5097391;28;20020;-77
2022/09/14 06:43:49;;;;;;;17.65;5.80;;;487.20;2380.80;;;;;;5102066;28;20035;-79
2022/09/14 06:46:23;;;;;;;13.80;5.95;;;487.30;2380.80;;;;;;5102828;28;20015;-78
2022/09/14 06:49:11;;;;;;;13.68;5.30;;;512.10;2380.80;;;;;;5093395;28;20023;-76
2022/09/14 06:51:42;;;;;;;8.68;5.25;;;512.30;2380.80;;;;;;5112172;27;20016;-77
2022/09/14 06:54:11;;;;;;;12.65;5.50;;;512.40;2380.80;;;;;;5089535;28;20045;-78
2022/09/14 06:56:39;;;;;;;10.02;4.55;;;512.50;2380.80;;;;;;5094962;28;20075;-78
2022/09/14 06:59:07;;;;;;;7.43;4.50;;;512.70;2380.80;;;;;;5075889;28;20035;-79
2022/09/14 07:01:33;;;;;;;9.13;5.65;;;512.80;2380.80;;;;;;5075629;28;20385;-77
2022/09/14 07:04:00;;;;;;;12.55;5.05;;;512.90;2380.80;;;;;;5078589;28;20050;-80
2022/09/14 07:06:29;;;;;;;7.95;4.75;;;537.70;2406.40;;;;;;5081573;28;20027;-78
2022/09/14 07:08:55;;;;;;;8.77;4.13;;;537.80;2406.40;;;;;;5082218;28;20028;-78
2022/09/14 07:11:24;;;;;;;12.65;5.60;;;537.80;2406.40;;;;;;5083778;28;20024;-78
2022/09/14 07:13:53;;;;;;;10.90;4.82;;;537.90;2406.40;;;;;;5096670;28;20028;-76
2022/09/14 07:16:20;;;;;;;7.25;4.90;;;538.00;2406.40;;;;;;5081343;28;20020;-79
2022/09/14 07:18:46;;;;;;;7.68;3.80;;;538.10;2406.40;;;;;;5112444;27;20115;-76
2022/09/14 07:21:14;;;;;;;9.90;4.78;;;538.20;2406.40;;;;;;5088677;28;20157;-77
2022/09/14 07:23:42;;;;;;;11.05;4.40;;;538.30;2406.40;;;;;;5114145;28;20082;-74
2022/09/14 07:26:09;;;;;;;6.80;3.90;;;538.50;2406.40;;;;;;5111893;28;20025;-77
2022/09/14 07:28:36;;;;;;;6.70;4.15;;;538.50;2406.40;;;;;;5083741;28;20031;-79
2022/09/14 07:31:04;;;;;;;8.05;4.57;;;563.20;2432.00;;;;;;5114432;28;20023;-79
2022/09/14 07:33:30;;;;;;;12.10;4.20;;;563.30;2432.00;;;;;;5100547;28;20048;-77
2022/09/14 07:36:07;;;;;;;11.52;4.35;;;563.40;2432.00;;;;;;5080335;28;20492;-79
2022/09/14 07:38:33;;;;;;;5.93;3.92;;;563.50;2432.00;;;;;;5109846;27;20028;-78
2022/09/14 07:41:00;;;;;;;10.57;4.00;;;563.60;2432.00;;;;;;5093039;28;20115;-78
2022/09/14 07:43:26;;;;;;;7.18;3.97;;;563.60;2432.00;;;;;;5098444;28;20032;-79
2022/09/14 07:45:51;;;;;;;6.28;3.80;;;563.80;2432.00;;;;;;5091219;28;20031;-79
2022/09/14 07:48:17;;;;;;;9.55;4.15;;;563.90;2432.00;;;;;;5085963;28;20032;-78
2022/09/14 07:50:43;;;;;;;10.27;4.43;;;564.00;2432.00;;;;;;5090092;28;20026;-78
2022/09/14 07:53:08;;;;;;;9.55;4.20;;;564.00;2432.00;;;;;;5112642;28;20035;-79
2022/09/14 07:55:37;;;;;;;10.60;4.05;;;564.10;2432.00;;;;;;5110037;28;20042;-78
2022/09/14 07:58:03;;;;;;;7.25;4.90;;;588.80;2432.00;;;;;;5084720;28;20088;-75
2022/09/14 08:00:29;;;;;;;13.23;4.45;;;588.80;2432.00;;;;;;5095477;28;20035;-78
2022/09/14 08:02:56;;;;;;;7.65;4.15;;;588.90;2432.00;;;;;;5094186;28;20400;-79
2022/09/14 08:05:22;;;;;;;6.80;3.78;;;589.10;2432.00;;;;;;5095400;28;20086;-77
2022/09/14 08:07:54;;;;;;;9.02;4.07;;;589.20;2432.00;;;;;;5113426;28;20018;-78
2022/09/14 08:10:19;;;;;;;10.10;3.92;;;589.30;2432.00;;;;;;5113553;28;20434;-78
2022/09/14 08:12:50;;;;;;;9.07;3.65;;;589.30;2432.00;;;;;;5098905;28;20023;-76
2022/09/14 08:15:16;;;;;;;14.75;3.78;;;589.50;2432.00;;;;;;5083597;28;20039;-75
2022/09/14 08:17:42;;;;;;;7.53;3.60;;;589.60;2432.00;;;;;;5092586;28;20058;-76
2022/09/14 08:20:08;;;;;;;8.60;4.57;;;589.60;2406.40;;;;;;5094786;28;20166;-76
2022/09/14 08:22:34;;;;;;;9.40;3.53;;;589.60;2432.00;;;;;;5094877;28;20028;-76
2022/09/14 08:24:59;;;;;;;8.18;4.47;;;614.40;2432.00;;;;;;5113198;28;20374;-73
2022/09/14 08:27:25;;;;;;;10.27;3.80;;;614.50;2432.00;;;;;;5113435;28;20558;-76
2022/09/14 08:29:51;;;;;;;6.50;3.20;;;614.70;2432.00;;;;;;5094782;28;20062;-79
2022/09/14 08:32:17;;;;;;;6.90;3.65;;;614.80;2304.00;;;;;;5113278;28;20156;-77
2022/09/14 08:34:42;;;;;;;9.50;3.45;;;614.80;2252.80;;;;;;5094310;28;20038;-76
2022/09/14 08:37:09;;;;;;;6.22;3.25;;;614.90;2432.00;;;;;;5095043;28;20027;-76
2022/09/14 08:39:35;;;;;;;6.60;4.00;;;615.00;2252.80;;;;;;5094559;28;20031;-77
2022/09/14 08:42:04;;;;;;;6.38;3.35;;;614.90;2304.00;;;;;;5094300;28;20468;-78
2022/09/14 08:44:38;;;;;;;8.55;3.13;;;614.90;2304.00;;;;;;5085135;28;20035;-75
2022/09/14 08:47:17;;;;;;;6.47;2.90;;;614.90;2201.60;;;;;;5094404;28;20072;-76
2022/09/14 08:50:01;;;;;;;8.00;2.92;;;614.90;2176.00;;;;;;5112952;28;20015;-76
2022/09/14 08:52:38;;;;;;;7.20;3.17;;;615.10;2201.60;;;;;;5112889;28;20076;-76
2022/09/14 08:55:23;;;;;;;10.77;3.45;;;615.10;2252.80;;;;;;5112607;28;20419;-76
2022/09/14 09:10:51;;;;;;;7.40;3.47;;;640.00;2124.80;;;;;;5130086;27;20379;-79
2022/09/14 09:13:21;;;;;;;10.35;3.15;;;665.70;1996.80;;;;;;5120364;27;20055;-79
2022/09/14 09:15:53;;;;;;;6.15;3.35;;;665.70;2022.40;;;;;;5108214;28;20028;-78
2022/09/14 09:18:31;;;;;;;6.63;3.22;;;665.70;1996.80;;;;;;5108390;28;20023;-78
2022/09/14 09:21:23;;;;;;;6.25;2.88;;;665.70;2073.60;;;;;;5122344;27;21288;-78
2022/09/14 09:23:49;;;;;;;8.25;3.25;;;665.70;1894.40;;;;;;5108313;28;20022;-78
2022/09/14 09:26:29;;;;;;;8.10;3.25;;;665.90;1894.40;;;;;;5109401;28;20532;-79
2022/09/14 09:29:02;;;;;;;9.75;2.97;;;;;;;;;;5143176;27;20028;-79
2022/09/14 09:31:51;;;;;;;4.50;3.22;;;666.10;1894.40;;;;;;5113239;28;20098;-79
2022/09/14 09:34:26;;;;;;;7.55;3.00;;;666.30;1920.00;;;;;;5109900;28;20059;-78
2022/09/14 09:36:54;;;;;;;4.63;2.80;;;666.40;1894.40;;;;;;5115574;28;20020;-77
2022/09/14 09:39:23;;;;;;;11.05;3.05;;;666.30;1868.80;;;;;;5114906;27;20051;-78
2022/09/14 09:42:05;;;;;;;10.15;2.90;;;666.50;1894.40;;;;;;5109336;28;20077;-79
2022/09/14 09:44:55;;;;;;;6.32;2.83;;;691.30;1868.80;;;;;;5109076;28;20024;-78
2022/09/14 09:47:41;;;;;;;5.45;3.05;;;691.40;1766.40;;;;;;5104645;28;20038;-77
2022/09/14 09:50:12;;;;;;;12.15;3.03;;;691.60;1740.80;;;;;;5109175;28;20046;-78
2022/09/14 09:52:49;;;;;;;8.30;3.15;;;691.80;1715.20;;;;;;5108994;28;20024;-79
2022/09/14 09:55:20;;;;;;;6.15;2.30;;;691.90;1689.60;;;;;;5112414;28;20492;-78
2022/09/14 09:57:45;;;;;;;5.40;2.45;;;692.10;1612.80;;;;;;5114060;27;20012;-78
2022/09/14 10:00:28;;;;;;;9.00;2.78;;;716.80;1638.40;;;;;;5119099;28;20048;-78
2022/09/14 10:02:55;;;;;;;5.78;2.35;;;717.10;1664.00;;;;;;5107737;28;20020;-78
2022/09/14 10:05:30;;;;;;;5.00;2.05;;;717.20;1510.40;;;;;;5107571;28;20028;-77
2022/09/14 10:08:01;;;;;;;10.77;2.90;;;717.20;1459.20;;;;;;5108721;27;20110;-79
2022/09/14 10:10:39;;;;;;;3.45;2.30;;;717.40;1459.20;;;;;;5103709;28;20051;-78
2022/09/14 10:13:15;;;;;;;11.73;2.47;;;717.40;1459.20;;;;;;5104777;28;20495;-78
2022/09/14 10:15:42;;;;;;;3.95;2.40;;;717.20;1459.20;;;;;;5100438;28;20089;-78
2022/09/14 10:18:10;;;;;;;6.10;2.47;;;717.20;1382.40;;;;;;5095567;28;20035;-79
2022/09/14 10:20:42;;;;;;;4.13;2.60;;;717.40;1408.00;;;;;;5092810;28;20020;-78
2022/09/14 10:23:19;;;;;;;5.28;2.40;;;717.70;1433.60;;;;;;5094405;28;20043;-79
2022/09/14 10:25:52;;;;;;;6.47;2.63;;;;;;;;;;5093431;28;20055;-79
2022/09/14 10:28:20;;;;;;;4.22;2.55;;;742.60;1408.00;;;;;;5096930;28;20051;-78
2022/09/14 10:30:54;;;;;;;6.38;2.60;;;742.90;1382.40;;;;;;5094526;28;20024;-79
2022/09/14 10:33:20;;;;;;;7.07;2.45;;;742.90;1382.40;;;;;;5094561;28;20036;-80
2022/09/14 10:36:12;;;;;;;4.18;2.15;;;743.00;1356.80;;;;;;5093704;28;20028;-80
2022/09/14 10:38:49;;;;;;;7.72;2.33;;;743.20;1356.80;;;;;;5081572;28;20048;-78
2022/09/14 10:41:22;;;;;;;7.03;2.08;;;743.30;1356.80;;;;;;5094264;28;20024;-79
2022/09/14 10:44:04;;;;;;;5.47;2.90;;;768.00;1382.40;;;;;;5093341;28;20494;-80
2022/09/14 10:46:39;;;;;;;4.47;2.53;;;768.20;1331.20;;;;;;5094368;28;20027;-84
2022/09/14 10:49:43;;;;;;;5.38;2.45;;;768.40;1356.80;;;;;;5103528;28;20019;-83
2022/09/14 10:52:30;;;;;;;3.92;1.95;;;768.30;1356.80;;;;;;5093196;28;20028;-79
2022/09/14 10:55:02;;;;;;;5.53;2.58;;;768.40;1356.80;;;;;;5110241;27;20020;-78
2022/09/14 10:57:40;;;;;;;4.68;2.35;;;768.60;1356.80;;;;;;5094084;28;20496;-78
2022/09/14 11:00:20;;;;;;;9.98;3.35;;;768.70;1331.20;;;;;;5097669;28;20036;-78
2022/09/14 11:03:11;;;;;;;5.75;2.88;;;768.90;1331.20;;;;;;5100408;27;20035;-79
2022/09/14 11:06:01;;;;;;;4.00;2.70;;;768.90;1331.20;;;;;;5109835;27;20029;-78
2022/09/14 11:08:43;;;;;;;6.93;2.80;;;768.90;1356.80;;;;;;5089751;28;20094;-77
2022/09/14 11:11:18;;;;;;;8.93;3.22;;;793.60;1356.80;;;;;;5091645;28;20052;-78
2022/09/14 11:14:24;;;;;;;5.93;2.67;;;793.70;1356.80;;;;;;5090328;28;20020;-77
2022/09/14 11:17:04;;;;;;;9.13;2.50;;;768.90;1356.80;;;;;;5119820;27;20039;-78
2022/09/14 11:19:43;;;;;;;5.15;2.63;;;768.90;1305.60;;;;;;5122144;27;20556;-78
2022/09/14 11:22:24;;;;;;;7.95;2.65;;;768.90;1305.60;;;;;;5119732;27;20024;-79
2022/09/14 11:25:17;;;;;;;6.95;2.70;;;793.60;1305.60;;;;;;5093554;28;20442;-78
2022/09/14 11:27:49;;;;;;;6.55;2.30;;;794.00;1280.00;;;;;;5122593;27;20400;-78
2022/09/14 11:30:24;;;;;;;5.00;2.80;;;794.20;1305.60;;;;;;5120774;27;20510;-80
2022/09/14 11:32:55;;;;;;;8.48;2.72;;;794.20;1228.80;;;;;;5118570;27;20111;-76
2022/09/14 11:35:49;;;;;;;6.32;2.72;;;819.20;1254.40;;;;;;5102663;28;20118;-77
2022/09/14 11:38:27;;;;;;;6.70;2.30;;;794.50;1203.20;;;;;;5094030;28;20112;-77
2022/09/14 11:41:12;;;;;;;5.25;2.80;;;819.30;1254.40;;;;;;5120179;27;20028;-76
2022/09/14 11:43:46;;;;;;;3.30;2.22;;;819.20;1203.20;;;;;;5120651;27;20028;-78
2022/09/14 11:46:21;;;;;;;7.22;2.75;;;819.20;1177.60;;;;;;5093853;27;20114;-77
2022/09/14 11:49:15;;;;;;;5.35;2.05;;;819.30;1203.20;;;;;;5115516;27;20019;-77
2022/09/14 11:52:19;;;;;;;4.35;2.50;;;819.20;1177.60;;;;;;5113437;27;20028;-78
2022/09/14 11:54:46;;;;;;;6.15;2.00;;;819.20;1203.20;;;;;;5091186;28;20026;-78
2022/09/14 11:57:17;;;;;;;6.35;2.05;;;;;;;;;;5125391;27;20483;-77
2022/09/14 11:59:43;;;;;;;2.95;1.77;;;819.80;1152.00;;;;;;5095949;28;20107;-78
2022/09/14 12:02:24;;;;;;;3.08;1.70;;;819.80;1100.80;;;;;;5091587;28;20020;-78
2022/09/14 12:05:05;;;;;;;7.60;2.03;;;819.80;1100.80;;;;;;5103860;28;20025;-77
2022/09/14 12:07:42;;;;;;;9.10;1.70;;;820.00;1049.60;;;;;;5090153;28;20090;-77
2022/09/14 12:10:16;;;;;;;6.38;1.65;;;819.80;1075.20;;;;;;5089696;28;20051;-78
2022/09/14 12:12:45;;;;;;;10.02;2.13;;;820.10;1075.20;;;;;;5093871;28;20044;-77
2022/09/14 12:15:21;;;;;;;5.68;1.88;;;820.10;1075.20;;;;;;5091404;28;20020;-78
2022/09/14 12:17:48;;;;;;;5.38;1.90;;;844.80;1126.40;;;;;;5093238;28;20119;-78
2022/09/14 12:20:22;;;;;;;7.40;2.35;;;820.00;1049.60;;;;;;5097623;28;20469;-78
2022/09/14 12:22:48;;;;;;;4.18;1.50;;;820.10;1075.20;;;;;;5093236;28;20020;-77
2022/09/14 12:25:18;;;;;;;5.05;1.40;;;820.10;1100.80;;;;;;5127307;27;20077;-78
2022/09/14 12:27:46;;;;;;;5.78;1.48;;;820.10;1100.80;;;;;;5091788;28;20046;-78
2022/09/14 12:30:40;;;;;;;4.32;1.80;;;844.80;1100.80;;;;;;5091870;28;20582;-78
2022/09/14 12:33:30;;;;;;;2.78;1.55;;;844.80;1100.80;;;;;;5091932;28;20024;-78
2022/09/14 12:36:19;;;;;;;8.23;1.77;;;844.90;1100.80;;;;;;5092138;28;20129;-78
2022/09/14 12:38:54;;;;;;;4.35;1.70;;;845.00;1100.80;;;;;;5089748;28;20448;-78
2022/09/14 12:41:19;;;;;;;5.73;1.70;;;820.10;1075.20;;;;;;5072937;28;20119;-78
2022/09/14 12:43:47;;;;;;;3.88;1.50;;;820.10;1075.20;;;;;;5088856;28;20063;-78
2022/09/14 12:46:21;;;;;;;6.18;1.55;;;819.80;1126.40;;;;;;5074614;28;20130;-78
2022/09/14 12:48:47;;;;;;;3.50;1.60;;;819.80;1126.40;;;;;;5074782;28;20020;-79